Time;durP1;ratioP1;P1;durP2;ratioP2;P2;SDS_P1;SDS_P2;PMS_P1;PMS_P2;Temp;Humidity;BMP_temperature;BMP_pressure;BME280_temperature;BME280_humidity;BME280_pressure;Samples;Min_cycle;Max_cycle;Signal;HPM_P1;HPM_P2
2022/02/19 09:00:42;;;;;;;15.77;2.80;;;;;;;7.24;92.38;101016.56;5147257;27;20822;-30
2022/02/19 09:03:10;;;;;;;13.32;2.28;;;;;;;7.05;93.04;101030.09;5114221;27;20455;-29
2022/02/19 09:05:38;;;;;;;23.02;3.03;;;;;;;7.00;94.45;101026.44;5117385;28;20051;-30
2022/02/19 09:08:06;;;;;;;15.07;2.40;;;;;;;7.24;95.81;101034.03;5119630;28;20047;-29
2022/02/19 09:10:36;;;;;;;17.70;2.75;;;;;;;7.55;93.31;101048.00;5117444;28;20051;-30
2022/02/19 09:13:04;;;;;;;16.75;2.65;;;;;;;7.60;92.80;101051.63;5121245;28;20048;-30
2022/02/19 09:15:32;;;;;;;11.93;1.98;;;;;;;7.49;91.34;101049.09;5119248;28;20174;-30
2022/02/19 09:18:02;;;;;;;14.93;2.28;;;;;;;7.35;91.64;101056.28;5121350;28;20493;-30
2022/02/19 09:20:29;;;;;;;12.93;2.60;;;;;;;7.30;91.51;101057.09;5118662;28;20130;-29
2022/02/19 09:22:57;;;;;;;20.35;2.55;;;;;;;7.51;91.81;101050.50;5120646;28;20040;-29
2022/02/19 09:25:25;;;;;;;14.75;2.25;;;;;;;7.65;90.41;101056.34;5120705;28;20082;-30
2022/02/19 09:27:52;;;;;;;15.98;2.45;;;;;;;7.85;89.05;101073.06;5118114;28;20501;-31
2022/02/19 09:30:20;;;;;;;17.40;2.65;;;;;;;8.08;88.44;101068.06;5122464;27;20051;-32
2022/02/19 09:32:49;;;;;;;12.73;2.58;;;;;;;8.40;88.53;101057.50;5116321;28;20538;-31
2022/02/19 09:35:19;;;;;;;13.95;2.38;;;;;;;8.58;88.30;101062.50;5122821;27;20045;-31
2022/02/19 09:37:48;;;;;;;11.95;2.45;;;;;;;8.68;86.82;101060.81;5114675;27;20039;-30
2022/02/19 09:40:16;;;;;;;14.02;2.40;;;;;;;8.73;87.05;101069.16;5123387;27;20090;-31
2022/02/19 09:42:45;;;;;;;16.75;2.53;;;;;;;8.58;84.99;101062.50;5113790;27;20069;-32
2022/02/19 09:45:13;;;;;;;13.25;2.38;;;;;;;8.71;86.43;101061.09;5123554;27;20070;-32
2022/02/19 09:47:43;;;;;;;15.07;2.40;;;;;;;8.91;84.00;101065.75;5114167;27;20046;-31
2022/02/19 09:50:12;;;;;;;12.95;2.38;;;;;;;9.02;83.53;101069.31;5122679;27;20039;-32
2022/02/19 09:52:41;;;;;;;15.10;2.97;;;;;;;9.21;81.93;101057.28;5114326;27;20048;-31
2022/02/19 09:55:09;;;;;;;13.02;2.45;;;;;;;9.44;82.50;101068.88;5123414;27;20039;-29
2022/02/19 09:57:37;;;;;;;14.10;2.13;;;;;;;9.59;79.69;101060.44;5115394;27;20134;-32
2022/02/19 10:00:06;;;;;;;12.50;2.47;;;;;;;9.68;79.58;101059.53;5116667;28;20044;-33
2022/02/19 10:02:40;;;;;;;15.65;2.92;;;;;;;9.88;80.33;101072.50;5102103;27;20172;-38
2022/02/19 10:05:13;;;;;;;9.05;1.80;;;;;;;10.02;77.36;101076.28;5106979;28;20059;-37
2022/02/19 10:07:43;;;;;;;15.93;2.55;;;;;;;10.12;77.67;101078.19;5104100;28;20047;-31
2022/02/19 10:10:25;;;;;;;15.35;2.78;;;;;;;10.06;73.54;101062.59;5104269;28;20436;-32
2022/02/19 10:12:53;;;;;;;12.60;2.72;;;;;;;10.01;74.79;101073.78;5102893;28;20549;-32
2022/02/19 10:15:21;;;;;;;12.63;2.30;;;;;;;9.94;75.73;101070.50;5106017;28;20558;-33
2022/02/19 10:17:51;;;;;;;12.05;2.47;;;;;;;9.86;76.19;101062.75;5102037;28;20047;-30
2022/02/19 10:20:20;;;;;;;13.85;2.47;;;;;;;9.80;75.90;101073.09;5109559;28;20112;-31
2022/02/19 10:22:52;;;;;;;11.10;2.47;;;;;;;9.86;75.48;101085.06;5104947;28;20119;-31
2022/02/19 10:25:24;;;;;;;13.03;2.30;;;;;;;9.93;74.58;101105.09;5106074;28;20046;-32
2022/02/19 10:27:55;;;;;;;13.20;2.40;;;;;;;9.89;72.89;101092.84;5104362;28;20055;-33
2022/02/19 10:30:26;;;;;;;17.08;2.38;;;;;;;9.83;72.91;101074.47;5106548;28;20054;-31
2022/02/19 10:32:57;;;;;;;16.10;2.95;;;;;;;9.91;73.54;101085.03;5104664;28;20089;-30
2022/02/19 10:35:30;;;;;;;13.43;2.67;;;;;;;10.12;73.96;101096.88;5105412;28;20554;-31
2022/02/19 10:38:02;;;;;;;10.55;2.30;;;;;;;10.17;72.68;101096.84;5100736;28;20076;-32
2022/02/19 10:40:39;;;;;;;14.55;2.55;;;;;;;10.20;72.01;101096.25;5100799;28;20048;-32
2022/02/19 10:43:09;;;;;;;11.07;2.30;;;;;;;10.35;73.15;101102.56;5100233;28;20116;-30
2022/02/19 10:45:50;;;;;;;11.93;1.95;;;;;;;10.37;71.39;101095.88;5100276;28;20206;-31
2022/02/19 10:48:22;;;;;;;10.57;2.17;;;;;;;10.43;71.02;101080.72;5100972;28;20146;-31
2022/02/19 10:50:50;;;;;;;12.57;2.38;;;;;;;10.12;69.32;101082.94;5101271;28;20051;-31
2022/02/19 10:53:24;;;;;;;12.32;2.20;;;;;;;10.04;70.33;101089.94;5099500;28;20113;-30
2022/02/19 10:55:53;;;;;;;15.07;2.47;;;;;;;9.83;71.87;101105.13;5102246;28;20043;-32
2022/02/19 10:58:21;;;;;;;14.05;2.55;;;;;;;9.73;72.91;101105.22;5098522;28;20056;-31
2022/02/19 11:00:49;;;;;;;13.80;2.85;;;;;;;9.74;73.15;101112.47;5103074;28;20044;-30
2022/02/19 11:03:17;;;;;;;12.80;2.28;;;;;;;9.87;73.18;101107.06;5096591;28;20048;-31
2022/02/19 11:05:45;;;;;;;12.77;2.00;;;;;;;9.73;70.90;101111.63;5099049;28;20054;-30
2022/02/19 11:08:13;;;;;;;11.07;2.40;;;;;;;9.65;72.62;101112.22;5108430;28;20490;-31
2022/02/19 11:10:44;;;;;;;15.43;2.65;;;;;;;9.68;73.45;101115.25;5099298;28;20067;-31
2022/02/19 11:13:12;;;;;;;11.05;2.42;;;;;;;9.82;73.17;101112.66;5106543;27;20043;-31
2022/02/19 11:15:41;;;;;;;14.07;2.10;;;;;;;9.91;72.48;101101.75;5099114;27;20050;-31
2022/02/19 11:18:09;;;;;;;15.07;2.78;;;;;;;9.86;72.09;101099.81;5107901;27;20044;-31
2022/02/19 11:20:37;;;;;;;10.77;2.70;;;;;;;9.84;72.94;101106.81;5098432;28;20040;-31
2022/02/19 11:23:07;;;;;;;11.80;2.45;;;;;;;9.63;71.01;101092.16;5107966;28;20047;-30
2022/02/19 11:25:36;;;;;;;13.98;2.22;;;;;;;9.50;73.88;101112.31;5100637;28;20047;-33
2022/02/19 11:28:08;;;;;;;10.32;2.20;;;;;;;9.54;73.86;101119.81;5106118;28;20406;-32
2022/02/19 11:30:42;;;;;;;14.05;2.30;;;;;;;9.49;74.16;101111.47;5102100;28;20099;-34
2022/02/19 11:33:12;;;;;;;14.65;2.55;;;;;;;9.58;74.68;101109.75;5106411;28;20040;-36
2022/02/19 11:35:42;;;;;;;15.85;3.13;;;;;;;9.61;74.71;101116.69;5101659;28;20482;-34
2022/02/19 11:38:25;;;;;;;14.63;2.70;;;;;;;9.49;74.79;101105.06;5104850;28;20044;-33
2022/02/19 11:40:54;;;;;;;13.63;2.53;;;;;;;9.41;74.26;101108.44;5101220;28;20048;-30
2022/02/19 11:43:37;;;;;;;18.85;2.75;;;;;;;9.21;75.11;101121.31;5105018;28;20065;-31
2022/02/19 11:46:10;;;;;;;13.32;2.47;;;;;;;9.15;76.51;101128.03;5101702;28;20093;-31
2022/02/19 11:48:38;;;;;;;14.05;2.58;;;;;;;9.00;76.65;101103.00;5104625;28;20052;-30
2022/02/19 11:51:17;;;;;;;14.55;2.13;;;;;;;8.92;77.82;101100.81;5102301;28;20126;-31
2022/02/19 11:53:45;;;;;;;12.43;2.78;;;;;;;8.77;78.37;101098.09;5105608;28;20386;-31
2022/02/19 11:56:28;;;;;;;14.05;2.50;;;;;;;8.66;77.96;101099.19;5101982;28;20130;-30
2022/02/19 11:58:58;;;;;;;17.80;2.65;;;;;;;8.59;79.02;101111.44;5104715;28;20052;-31
2022/02/19 12:01:27;;;;;;;18.48;3.13;;;;;;;8.47;79.10;101113.69;5102294;28;20048;-30
2022/02/19 12:04:15;;;;;;;12.30;1.98;;;;;;;8.41;79.04;101106.44;5103357;28;20555;-31
2022/02/19 12:06:44;;;;;;;14.52;2.60;;;;;;;8.34;79.73;101117.03;5101449;28;20063;-30
2022/02/19 12:09:16;;;;;;;15.10;2.17;;;;;;;8.33;81.24;101118.16;5097916;28;20043;-31
2022/02/19 12:12:04;;;;;;;;;;;;;;;8.19;80.50;101120.59;5101488;28;20047;-29
2022/02/19 12:15:02;;;;;;;14.68;2.50;;;;;;;8.09;82.04;101108.66;5105521;28;19959;-30
2022/02/19 12:17:54;;;;;;;19.05;2.58;;;;;;;8.11;83.32;101117.53;5097646;28;20106;-32
2022/02/19 12:20:30;;;;;;;17.90;2.90;;;;;;;8.05;83.61;101130.59;5106619;28;20055;-31
2022/02/19 12:23:01;;;;;;;12.90;2.20;;;;;;;8.00;84.38;101116.69;5097792;28;20058;-30
2022/02/19 12:26:07;;;;;;;15.23;3.30;;;;;;;8.04;85.59;101108.63;5106263;28;20052;-30
2022/02/19 12:28:40;;;;;;;17.38;2.65;;;;;;;8.02;84.38;101119.19;5099098;28;20127;-30
2022/02/19 12:31:24;;;;;;;11.38;2.17;;;;;;;8.09;84.86;101126.16;5105856;28;20043;-30
2022/02/19 12:33:53;;;;;;;14.80;2.35;;;;;;;8.10;85.13;101099.19;5099987;28;20057;-32
2022/02/19 12:36:22;;;;;;;17.10;2.67;;;;;;;8.15;84.73;101108.38;5105874;28;20046;-30
2022/02/19 12:38:51;;;;;;;17.73;2.58;;;;;;;8.10;83.92;101101.97;5096936;28;20043;-30
2022/02/19 12:41:20;;;;;;;14.13;2.53;;;;;;;8.05;85.22;101090.84;5106102;28;20059;-31
2022/02/19 12:44:10;;;;;;;12.65;2.17;;;;;;;7.96;84.58;101101.69;5097274;28;20054;-31
2022/02/19 12:46:41;;;;;;;16.35;2.53;;;;;;;7.92;85.77;101089.47;5105260;28;20413;-33
2022/02/19 12:49:09;;;;;;;24.17;3.40;;;;;;;7.86;86.82;101090.56;5097892;28;20048;-31
2022/02/19 12:51:44;;;;;;;11.75;2.20;;;;;;;7.88;86.34;101075.28;5105745;28;20043;-31
2022/02/19 12:54:12;;;;;;;17.15;2.33;;;;;;;7.86;84.95;101071.94;5096957;28;20393;-30
2022/02/19 12:56:42;;;;;;;18.30;2.78;;;;;;;7.90;85.42;101064.72;5105694;28;20052;-33
2022/02/19 12:59:09;;;;;;;13.57;2.25;;;;;;;7.99;84.72;101078.09;5095300;28;20409;-30
2022/02/19 13:01:37;;;;;;;14.65;2.65;;;;;;;7.83;85.96;101071.66;5105558;28;20120;-31
2022/02/19 13:04:07;;;;;;;19.15;3.17;;;;;;;7.78;86.39;101057.78;5096267;28;20048;-30
2022/02/19 13:06:46;;;;;;;18.17;2.88;;;;;;;7.75;86.79;101059.16;5104548;28;20122;-31
2022/02/19 13:09:20;;;;;;;16.02;2.22;;;;;;;7.75;86.50;101053.59;5096125;28;20399;-34
2022/02/19 13:11:51;;;;;;;16.33;2.33;;;;;;;7.79;87.13;101053.91;5105489;28;20451;-32
2022/02/19 13:14:20;;;;;;;16.40;2.50;;;;;;;7.91;88.55;101035.00;5096612;28;20468;-31
2022/02/19 13:16:59;;;;;;;18.70;2.53;;;;;;;8.02;88.76;101035.81;5094176;28;20043;-31
2022/02/19 13:19:30;;;;;;;17.08;2.60;;;;;;;7.95;88.82;101034.19;5101626;28;20373;-32
2022/02/19 13:22:03;;;;;;;16.10;2.03;;;;;;;7.87;87.47;101031.94;5094093;28;20493;-31
2022/02/19 13:24:34;;;;;;;11.70;2.35;;;;;;;7.80;87.24;101023.03;5101501;28;20131;-30
2022/02/19 13:27:13;;;;;;;16.20;2.47;;;;;;;7.83;88.98;101024.44;5093010;28;20126;-31
2022/02/19 13:29:47;;;;;;;19.80;2.70;;;;;;;7.64;88.49;101029.69;5101163;28;20588;-30
2022/02/19 13:32:15;;;;;;;21.40;3.55;;;;;;;7.53;89.53;101022.47;5094350;28;20060;-32
2022/02/19 13:34:45;;;;;;;18.60;3.22;;;;;;;7.45;90.86;101034.09;5097218;28;20040;-32
2022/02/19 13:37:13;;;;;;;20.23;3.03;;;;;;;7.37;91.54;101010.50;5097560;28;20040;-31
2022/02/19 13:39:42;;;;;;;24.83;3.72;;;;;;;7.40;93.32;101009.09;5103799;28;20055;-31
2022/02/19 13:42:10;;;;;;;21.48;3.00;;;;;;;7.42;93.53;101004.09;5103791;28;20410;-29
2022/02/19 13:44:46;;;;;;;19.88;3.22;;;;;;;7.45;93.82;101004.38;5104397;28;20040;-29
2022/02/19 13:47:15;;;;;;;18.58;2.75;;;;;;;7.39;94.69;100997.19;5099355;28;20124;-30
2022/02/19 13:49:46;;;;;;;19.50;2.97;;;;;;;7.37;94.92;101006.88;5101549;27;20138;-31
2022/02/19 13:52:24;;;;;;;19.15;4.10;;;;;;;7.31;95.21;101005.19;5098772;28;20253;-30
2022/02/19 13:54:52;;;;;;;19.98;3.00;;;;;;;7.23;95.40;100989.91;5101656;28;20040;-30
2022/02/19 13:57:21;;;;;;;19.67;2.78;;;;;;;7.14;95.50;100980.47;5098446;28;20059;-30
2022/02/19 14:00:01;;;;;;;17.65;2.95;;;;;;;7.14;95.97;100981.31;5104316;28;20468;-30
2022/02/19 14:02:39;;;;;;;21.83;3.13;;;;;;;7.12;97.58;100986.28;5105698;28;20603;-32
2022/02/19 14:05:10;;;;;;;19.63;3.13;;;;;;;7.14;97.98;100991.56;5104445;28;20048;-29
2022/02/19 14:07:51;;;;;;;22.58;3.22;;;;;;;7.10;97.95;100996.81;5105955;28;20047;-33
2022/02/19 14:10:19;;;;;;;26.13;3.28;;;;;;;7.05;98.28;100987.63;5102956;28;20414;-31
2022/02/19 14:12:47;;;;;;;18.67;3.03;;;;;;;7.07;97.83;100990.97;5104485;28;20390;-31
2022/02/19 14:15:17;;;;;;;17.15;2.65;;;;;;;7.08;96.46;100979.59;5104446;28;20081;-30
2022/02/19 14:17:46;;;;;;;26.02;3.47;;;;;;;7.04;96.71;100972.94;5104541;28;20138;-30
2022/02/19 14:20:17;;;;;;;16.70;2.60;;;;;;;7.06;96.75;100976.28;5104886;28;20063;-31
2022/02/19 14:22:47;;;;;;;16.40;2.60;;;;;;;7.07;96.53;100980.72;5102786;28;20117;-30
2022/02/19 14:25:17;;;;;;;19.75;2.58;;;;;;;7.04;97.57;100972.09;5106022;28;20466;-29
2022/02/19 14:27:51;;;;;;;22.65;3.33;;;;;;;7.02;97.90;100977.06;5102024;28;20412;-31
2022/02/19 14:30:21;;;;;;;16.05;3.08;;;;;;;6.96;98.18;100967.09;5106363;28;20059;-31
2022/02/19 14:32:53;;;;;;;28.63;3.45;;;;;;;7.01;99.50;100970.69;5100874;28;20088;-30
2022/02/19 14:35:22;;;;;;;20.20;2.92;;;;;;;7.04;100.00;100970.16;5108026;28;20443;-30
2022/02/19 14:37:50;;;;;;;20.77;3.22;;;;;;;7.02;100.00;100961.25;5098639;28;20805;-30
2022/02/19 14:40:18;;;;;;;22.55;3.10;;;;;;;7.06;100.00;100962.41;5107966;28;20058;-29
2022/02/19 14:42:46;;;;;;;26.77;3.28;;;;;;;7.03;100.00;100951.84;5098662;28;20040;-29
2022/02/19 14:45:15;;;;;;;22.63;3.53;;;;;;;7.00;100.00;100946.84;5106875;28;20125;-30
2022/02/19 14:47:43;;;;;;;25.67;3.15;;;;;;;7.00;100.00;100952.38;5098708;27;20036;-35
2022/02/19 14:50:12;;;;;;;19.63;2.97;;;;;;;7.01;100.00;100945.72;5107347;28;20044;-30
2022/02/19 14:52:41;;;;;;;21.25;3.17;;;;;;;7.01;100.00;100928.25;5097313;27;20058;-30
2022/02/19 14:55:09;;;;;;;22.02;2.83;;;;;;;6.95;100.00;100921.88;5106910;28;20421;-33
2022/02/19 14:57:37;;;;;;;20.10;3.08;;;;;;;6.94;100.00;100916.59;5099092;28;20490;-31
2022/02/19 15:00:06;;;;;;;12.93;1.75;;;;;;;6.89;98.82;100909.94;5103674;28;20372;-32
2022/02/19 15:02:34;;;;;;;14.68;2.35;;;;;;;6.83;98.24;100924.03;5101951;28;20048;-30
2022/02/19 15:05:01;;;;;;;10.50;1.85;;;;;;;6.74;98.66;100911.81;5103298;28;20048;-30
2022/02/19 15:07:43;;;;;;;11.73;2.03;;;;;;;6.67;97.01;100908.47;5101073;28;20058;-30
2022/02/19 15:10:12;;;;;;;17.35;2.25;;;;;;;6.57;98.77;100915.66;5104337;28;20051;-33
2022/02/19 15:12:40;;;;;;;11.38;1.65;;;;;;;6.54;100.00;100899.56;5099578;28;20400;-30
2022/02/19 15:15:09;;;;;;;16.38;2.67;;;;;;;6.47;100.00;100881.50;5105067;28;20052;-30
2022/02/19 15:17:37;;;;;;;12.05;2.85;;;;;;;6.45;100.00;100894.81;5102638;28;20052;-30
2022/02/19 15:20:06;;;;;;;14.85;2.60;;;;;;;6.43;100.00;100886.75;5104007;28;20055;-31
2022/02/19 15:22:34;;;;;;;12.02;2.30;;;;;;;6.38;100.00;100892.28;5102687;28;20028;-32
2022/02/19 15:25:04;;;;;;;14.63;2.65;;;;;;;6.30;100.00;100895.56;5103802;28;20055;-29
2022/02/19 15:27:32;;;;;;;12.95;2.25;;;;;;;6.27;100.00;100871.16;5103109;28;20050;-30
2022/02/19 15:30:00;;;;;;;16.75;2.40;;;;;;;6.24;100.00;100866.16;5101985;28;20134;-30
2022/02/19 15:32:28;;;;;;;14.48;2.47;;;;;;;6.18;100.00;100862.56;5104859;28;20066;-29
2022/02/19 15:34:56;;;;;;;14.35;2.55;;;;;;;6.23;100.00;100847.88;5097553;28;20050;-32
2022/02/19 15:37:24;;;;;;;13.73;2.03;;;;;;;6.24;100.00;100830.13;5106868;27;20050;-28
2022/02/19 15:39:53;;;;;;;16.95;2.50;;;;;;;6.26;100.00;100830.72;5098058;28;20048;-30
2022/02/19 15:42:30;;;;;;;15.38;3.05;;;;;;;6.31;100.00;100827.97;5106809;28;20439;-30
2022/02/19 15:44:58;;;;;;;14.27;2.40;;;;;;;6.30;100.00;100823.53;5097538;28;20048;-32
2022/02/19 15:47:27;;;;;;;12.40;2.08;;;;;;;6.35;100.00;100806.91;5105705;28;20059;-30
2022/02/19 15:49:55;;;;;;;14.85;2.35;;;;;;;6.36;100.00;100796.66;5097468;28;20043;-31
2022/02/19 15:52:23;;;;;;;10.68;2.25;;;;;;;6.29;100.00;100805.22;5106334;28;20096;-31
2022/02/19 15:54:51;;;;;;;9.82;1.60;;;;;;;6.21;100.00;100791.88;5096715;28;20422;-30
2022/02/19 15:57:18;;;;;;;7.07;1.42;;;;;;;6.19;100.00;100791.34;5105890;28;20051;-31
2022/02/19 15:59:47;;;;;;;13.02;1.48;;;;;;;6.18;100.00;100782.22;5097434;28;20056;-30
2022/02/19 16:02:15;;;;;;;12.85;2.03;;;;;;;6.14;100.00;100778.31;5104753;28;20054;-31
2022/02/19 16:04:43;;;;;;;6.18;1.25;;;;;;;6.14;99.36;100760.84;5100060;28;20058;-30
2022/02/19 16:07:11;;;;;;;11.18;1.75;;;;;;;6.12;100.00;100769.44;5103193;28;20055;-32
2022/02/19 16:09:38;;;;;;;9.90;1.50;;;;;;;6.11;100.00;100766.94;5100141;28;20052;-31
2022/02/19 16:12:07;;;;;;;10.13;1.50;;;;;;;6.09;100.00;100758.06;5103552;28;20082;-30
2022/02/19 16:14:35;;;;;;;9.82;1.77;;;;;;;6.14;100.00;100749.78;5101962;28;20047;-30
2022/02/19 16:17:04;;;;;;;12.77;2.00;;;;;;;6.14;100.00;100753.38;5103257;28;20040;-31
2022/02/19 16:19:32;;;;;;;11.77;1.73;;;;;;;6.01;100.00;100755.81;5101426;28;20044;-34
2022/02/19 16:22:04;;;;;;;10.48;1.60;;;;;;;5.83;100.00;100744.09;5102875;28;20051;-37
2022/02/19 16:24:32;;;;;;;14.25;1.50;;;;;;;5.71;100.00;100746.25;5101624;28;20055;-32
2022/02/19 16:27:00;;;;;;;13.07;2.10;;;;;;;5.67;100.00;100753.44;5101795;28;20385;-33
2022/02/19 16:29:28;;;;;;;13.00;1.92;;;;;;;5.46;100.00;100757.19;5101944;28;20070;-32
2022/02/19 16:31:56;;;;;;;17.52;1.92;;;;;;;5.28;100.00;100752.09;5099555;28;20044;-31
2022/02/19 16:34:25;;;;;;;9.07;1.80;;;;;;;5.11;100.00;100730.97;5102495;28;20066;-30
2022/02/19 16:36:52;;;;;;;11.48;1.75;;;;;;;5.03;100.00;100722.31;5096920;28;20062;-33
2022/02/19 16:39:21;;;;;;;13.27;1.63;;;;;;;4.99;100.00;100718.44;5105153;28;20521;-31
2022/02/19 16:41:48;;;;;;;7.55;1.27;;;;;;;4.91;100.00;100705.94;5096462;28;20476;-32
2022/02/19 16:44:16;;;;;;;6.65;1.30;;;;;;;4.87;100.00;100696.50;5104983;28;20055;-31
2022/02/19 16:46:45;;;;;;;8.30;1.50;;;;;;;4.73;100.00;100696.13;5096900;28;20140;-31
2022/02/19 16:49:12;;;;;;;9.57;1.77;;;;;;;4.67;100.00;100685.31;5105389;28;20047;-31
2022/02/19 16:51:41;;;;;;;8.05;1.88;;;;;;;4.57;100.00;100671.41;5095771;28;20052;-32
2022/02/19 16:54:09;;;;;;;10.32;1.20;;;;;;;4.53;100.00;100651.75;5105574;28;20395;-32
2022/02/19 16:56:37;;;;;;;7.00;1.20;;;;;;;4.55;100.00;100651.50;5097809;28;20598;-31
2022/02/19 16:59:05;;;;;;;10.65;1.77;;;;;;;4.57;100.00;100652.06;5103582;28;20047;-31
2022/02/19 17:01:32;;;;;;;9.27;1.80;;;;;;;4.58;100.00;100654.56;5099839;28;20044;-32
2022/02/19 17:04:04;;;;;;;7.45;1.40;;;;;;;4.54;100.00;100642.38;5103180;28;20052;-31
2022/02/19 17:06:32;;;;;;;7.32;1.40;;;;;;;4.46;100.00;100629.03;5100080;28;20572;-32
2022/02/19 17:09:02;;;;;;;10.57;2.10;;;;;;;4.40;100.00;100625.41;5102913;28;20160;-32
2022/02/19 17:11:30;;;;;;;8.30;1.60;;;;;;;4.36;100.00;100617.94;5102118;28;20048;-31
2022/02/19 17:13:58;;;;;;;7.97;1.15;;;;;;;4.31;100.00;100610.44;5107742;28;20519;-31
2022/02/19 17:16:25;;;;;;;6.30;1.13;;;;;;;4.31;100.00;100599.38;5105246;28;20054;-32
2022/02/19 17:18:53;;;;;;;10.65;1.58;;;;;;;4.32;100.00;100594.69;5105928;28;20048;-32
2022/02/19 17:21:21;;;;;;;7.80;1.52;;;;;;;4.34;100.00;100581.44;5101589;28;20565;-31
2022/02/19 17:23:50;;;;;;;9.18;1.77;;;;;;;4.28;100.00;100583.34;5102489;28;20048;-31
2022/02/19 17:26:19;;;;;;;8.70;1.35;;;;;;;4.29;100.00;100585.00;5099408;28;20469;-32
2022/02/19 17:28:48;;;;;;;4.55;1.30;;;;;;;4.25;100.00;100572.81;5104324;28;20456;-31
2022/02/19 17:31:16;;;;;;;8.98;1.50;;;;;;;4.26;100.00;100555.16;5097965;28;20520;-32
2022/02/19 17:33:48;;;;;;;4.95;1.05;;;;;;;4.19;100.00;100557.31;5103139;28;20087;-32
2022/02/19 17:36:16;;;;;;;6.95;1.40;;;;;;;4.08;100.00;100569.38;5097462;28;20063;-31
2022/02/19 17:38:44;;;;;;;3.30;0.90;;;;;;;3.88;100.00;100542.41;5106231;28;20047;-30
2022/02/19 17:41:12;;;;;;;5.70;1.48;;;;;;;3.74;100.00;100539.28;5096762;28;20047;-31
2022/02/19 17:43:42;;;;;;;7.13;2.10;;;;;;;3.71;100.00;100528.75;5106278;28;20067;-31
2022/02/19 17:46:10;;;;;;;9.43;1.70;;;;;;;3.67;100.00;100522.09;5098067;28;20059;-32
2022/02/19 17:48:39;;;;;;;7.35;2.67;;;;;;;3.70;100.00;100506.94;5105670;28;20072;-31
2022/02/19 17:51:06;;;;;;;4.93;1.75;;;;;;;3.69;100.00;100497.81;5097514;28;20048;-33
2022/02/19 17:53:34;;;;;;;6.32;1.55;;;;;;;3.70;100.00;100502.25;5101754;28;20044;-31
2022/02/19 17:56:02;;;;;;;3.63;1.52;;;;;;;3.69;100.00;100484.03;5097570;28;20054;-32
2022/02/19 17:58:30;;;;;;;5.15;1.83;;;;;;;3.63;100.00;100481.47;5103479;28;20062;-31
2022/02/19 18:00:59;;;;;;;7.80;2.67;;;;;;;3.61;100.00;100464.34;5099148;28;20056;-33
2022/02/19 18:03:27;;;;;;;5.60;2.33;;;;;;;3.55;100.00;100468.19;5102439;28;20036;-32
2022/02/19 18:05:54;;;;;;;4.60;1.60;;;;;;;3.45;100.00;100455.13;5099620;28;20047;-31
2022/02/19 18:08:22;;;;;;;3.55;1.70;;;;;;;3.44;100.00;100448.78;5100460;28;20055;-31
2022/02/19 18:10:50;;;;;;;2.78;1.50;;;;;;;3.45;100.00;100455.13;5098618;28;20059;-31
2022/02/19 18:13:18;;;;;;;4.90;1.63;;;;;;;3.44;100.00;100451.53;5102044;28;20413;-32
2022/02/19 18:15:46;;;;;;;4.15;1.60;;;;;;;3.40;100.00;100444.88;5099428;27;20056;-31
2022/02/19 18:18:15;;;;;;;3.42;1.40;;;;;;;3.36;100.00;100448.44;5105437;28;20047;-31
2022/02/19 18:20:43;;;;;;;4.07;1.23;;;;;;;3.26;100.00;100459.34;5103036;28;20054;-31
2022/02/19 18:23:10;;;;;;;3.63;1.30;;;;;;;3.10;100.00;100466.66;5104449;28;20056;-31
2022/02/19 18:25:39;;;;;;;2.55;0.95;;;;;;;2.96;100.00;100446.94;5101343;28;20051;-33
2022/02/19 18:28:08;;;;;;;2.85;0.77;;;;;;;2.86;100.00;100462.50;5107953;28;20047;-31
2022/02/19 18:30:36;;;;;;;4.57;1.10;;;;;;;2.71;100.00;100430.13;5099621;28;20061;-31
2022/02/19 18:33:04;;;;;;;3.35;1.00;;;;;;;2.58;100.00;100436.03;5105655;28;20050;-33
2022/02/19 18:35:35;;;;;;;6.32;1.20;;;;;;;2.48;100.00;100414.69;5099123;28;20047;-33
2022/02/19 18:38:02;;;;;;;3.42;1.40;;;;;;;2.45;100.00;100425.38;5106215;27;20047;-32
2022/02/19 18:40:30;;;;;;;2.85;1.25;;;;;;;2.34;100.00;100414.25;5098792;28;20051;-33
2022/02/19 18:42:58;;;;;;;3.65;1.85;;;;;;;2.27;100.00;100410.03;5106677;28;20051;-32
2022/02/19 18:45:47;;;;;;;3.80;2.05;;;;;;;2.18;100.00;100386.78;5097841;28;20074;-32
2022/02/19 18:48:15;;;;;;;3.10;1.98;;;;;;;2.09;100.00;100400.16;5107968;28;20051;-34
2022/02/19 18:50:47;;;;;;;3.90;2.03;;;;;;;2.01;100.00;100375.81;5098066;28;20051;-32
2022/02/19 18:53:15;;;;;;;2.42;1.75;;;;;;;1.96;100.00;100365.59;5107637;27;20047;-33
2022/02/19 18:55:42;;;;;;;3.25;1.58;;;;;;;1.95;100.00;100365.84;5098873;27;20046;-34
2022/02/19 18:58:10;;;;;;;3.53;1.67;;;;;;;1.86;100.00;100350.84;5095624;28;20470;-32
2022/02/19 19:00:38;;;;;;;2.80;1.77;;;;;;;1.79;100.00;100366.72;5103000;28;20498;-31
2022/02/19 19:03:07;;;;;;;3.30;1.85;;;;;;;1.79;100.00;100345.56;5098213;27;20082;-32
2022/02/19 19:05:36;;;;;;;3.95;2.08;;;;;;;1.83;100.00;100348.63;5100221;28;20485;-32
2022/02/19 19:08:06;;;;;;;3.15;1.70;;;;;;;1.83;100.00;100338.44;5104196;28;20413;-32
2022/02/19 19:10:34;;;;;;;3.03;2.15;;;;;;;1.86;100.00;100340.69;5103210;28;20047;-33
2022/02/19 19:13:02;;;;;;;3.42;2.40;;;;;;;1.93;100.00;100329.50;5096249;28;20036;-31
2022/02/19 19:15:30;;;;;;;3.22;2.38;;;;;;;1.95;100.00;100303.41;5100631;27;20497;-33
2022/02/19 19:18:00;;;;;;;3.92;2.60;;;;;;;1.97;100.00;100306.72;5097344;28;20044;-32
2022/02/19 19:20:28;;;;;;;4.43;2.40;;;;;;;2.13;100.00;100316.00;5102841;28;20044;-32
2022/02/19 19:22:57;;;;;;;5.40;2.22;;;;;;;2.26;100.00;100301.00;5103440;28;20320;-32
2022/02/19 19:25:27;;;;;;;6.47;3.33;;;;;;;2.36;100.00;100296.44;5097240;28;20138;-31
2022/02/19 19:27:56;;;;;;;9.55;4.97;;;;;;;2.41;100.00;100284.63;5100435;28;20054;-31
2022/02/19 19:30:24;;;;;;;9.05;5.07;;;;;;;2.48;100.00;100276.19;5097844;28;20055;-35
2022/02/19 19:32:51;;;;;;;9.80;4.53;;;;;;;2.52;100.00;100286.41;5100095;28;20048;-33
2022/02/19 19:35:39;;;;;;;10.57;5.50;;;;;;;2.56;100.00;100273.78;5098112;28;20067;-31
2022/02/19 19:38:07;;;;;;;8.95;4.18;;;;;;;2.60;100.00;100261.13;5101507;28;20051;-31
2022/02/19 19:40:37;;;;;;;13.32;5.40;;;;;;;2.63;100.00;100246.03;5095259;28;20506;-32
2022/02/19 19:43:04;;;;;;;6.88;3.00;;;;;;;2.74;100.00;100247.78;5103428;28;20052;-31
2022/02/19 19:45:32;;;;;;;8.00;3.33;;;;;;;2.87;100.00;100246.50;5095162;28;20449;-31
2022/02/19 19:48:00;;;;;;;9.52;3.03;;;;;;;3.01;100.00;100242.19;5103329;28;20130;-33
2022/02/19 19:50:28;;;;;;;9.70;4.20;;;;;;;3.15;100.00;100234.31;5095189;28;20055;-31
2022/02/19 19:52:56;;;;;;;10.57;2.60;;;;;;;3.26;100.00;100225.81;5103832;28;20039;-32
2022/02/19 19:55:24;;;;;;;8.43;2.78;;;;;;;3.38;100.00;100223.72;5094328;28;20122;-32
2022/02/19 19:57:53;;;;;;;10.55;2.42;;;;;;;3.56;100.00;100218.81;5104093;28;20047;-32
2022/02/19 20:00:21;;;;;;;11.40;2.95;;;;;;;3.70;100.00;100214.47;5094472;28;20058;-33
2022/02/19 20:02:48;;;;;;;9.23;3.20;;;;;;;3.83;100.00;100215.88;5102387;28;20048;-33
2022/02/19 20:05:17;;;;;;;10.60;3.30;;;;;;;3.91;100.00;100207.09;5095937;28;20503;-33
2022/02/19 20:07:45;;;;;;;14.85;3.83;;;;;;;3.99;100.00;100206.56;5099708;28;20055;-31
2022/02/19 20:10:14;;;;;;;8.63;2.75;;;;;;;4.07;100.00;100211.56;5098056;28;20429;-32
2022/02/19 20:12:43;;;;;;;18.40;3.05;;;;;;;4.17;100.00;100199.72;5099858;28;20058;-33
2022/02/19 20:15:13;;;;;;;17.48;2.90;;;;;;;4.30;100.00;100207.47;5095994;28;20040;-35
2022/02/19 20:17:43;;;;;;;18.58;2.50;;;;;;;4.53;100.00;100208.88;5099251;28;20051;-32
2022/02/19 20:20:12;;;;;;;18.15;2.75;;;;;;;4.80;100.00;100206.63;5095920;28;20101;-34
2022/02/19 20:22:40;;;;;;;17.85;2.10;;;;;;;5.05;100.00;100206.63;5098440;28;20509;-32
2022/02/19 20:25:09;;;;;;;27.67;2.95;;;;;;;5.26;100.00;100209.34;5097667;28;20485;-33
2022/02/19 20:27:39;;;;;;;18.00;2.45;;;;;;;5.38;100.00;100205.19;5098611;28;20047;-31
2022/02/19 20:30:07;;;;;;;14.45;2.45;;;;;;;5.46;100.00;100206.53;5097754;28;20056;-30
2022/02/19 20:32:36;;;;;;;15.73;2.55;;;;;;;5.52;100.00;100208.19;5096618;28;20048;-31
2022/02/19 20:35:06;;;;;;;15.50;2.13;;;;;;;5.54;100.00;100219.81;5098113;28;20115;-31
2022/02/19 20:37:35;;;;;;;16.17;2.55;;;;;;;5.57;100.00;100219.25;5095064;28;20056;-31